Time;durP1;ratioP1;P1;durP2;ratioP2;P2;SDS_P1;SDS_P2;PMS_P1;PMS_P2;Temp;Humidity;BMP_temperature;BMP_pressure;BME280_temperature;BME280_humidity;BME280_pressure;Samples;Min_cycle;Max_cycle;Signal;HPM_P1;HPM_P2
2023/10/29 00:01:42;;;;;;;9.57;4.90;;;;;;;;;;4953017;29;20515;-49
2023/10/29 00:04:08;;;;;;;10.47;4.30;;;;;;;;;;4934909;29;20031;-52
2023/10/29 00:06:34;;;;;;;6.97;4.07;;;;;;;;;;4953308;29;20035;-47
2023/10/29 00:09:00;;;;;;;11.15;5.30;;;;;;;;;;4953333;28;20032;-47
2023/10/29 00:11:26;;;;;;;16.67;6.28;;;;;;;;;;4953438;29;20049;-47
2023/10/29 00:13:53;;;;;;;8.32;5.43;;;;;;;;;;4952956;29;20039;-48
2023/10/29 00:16:19;;;;;;;8.02;4.65;;;;;;;;;;4953068;29;20075;-46
2023/10/29 00:18:45;;;;;;;13.80;5.55;;;;;;;;;;4952643;28;20031;-50
2023/10/29 00:21:11;;;;;;;11.35;5.40;;;;;;;;;;4947207;29;20032;-47
2023/10/29 00:23:38;;;;;;;8.95;4.55;;;;;;;;;;4933192;29;20032;-53
2023/10/29 00:26:04;;;;;;;8.38;4.68;;;;;;;;;;4949202;29;20117;-49
2023/10/29 00:28:30;;;;;;;8.15;3.80;;;;;;;;;;4956848;28;20023;-51
2023/10/29 00:30:56;;;;;;;5.47;4.05;;;;;;;;;;4956706;29;20031;-47
2023/10/29 00:33:22;;;;;;;9.47;4.37;;;;;;;;;;4939396;29;20508;-48
2023/10/29 00:35:49;;;;;;;10.05;4.53;;;;;;;;;;4956621;29;20038;-47
2023/10/29 00:38:15;;;;;;;8.07;4.70;;;;;;;;;;4956816;28;20024;-47
2023/10/29 00:40:41;;;;;;;11.70;4.75;;;;;;;;;;4939682;29;20027;-48
2023/10/29 00:43:07;;;;;;;6.40;4.30;;;;;;;;;;4956641;29;20517;-47
2023/10/29 00:45:34;;;;;;;6.25;4.40;;;;;;;;;;4956374;29;20109;-47
2023/10/29 00:48:00;;;;;;;;;;;;;;;;;;4956826;28;20043;-51
2023/10/29 00:50:27;;;;;;;11.05;4.60;;;;;;;;;;4956563;29;19915;-47
2023/10/29 00:52:53;;;;;;;8.13;4.93;;;;;;;;;;4939207;29;20078;-47
2023/10/29 00:55:19;;;;;;;7.97;4.03;;;;;;;;;;4939623;29;20752;-47
2023/10/29 00:57:45;;;;;;;7.50;4.10;;;;;;;;;;4955939;28;20478;-47
2023/10/29 01:00:12;;;;;;;11.75;5.25;;;;;;;;;;4938930;29;20039;-49
2023/10/29 01:02:38;;;;;;;7.32;4.28;;;;;;;;;;4939356;29;20051;-47
2023/10/29 01:05:05;;;;;;;6.15;4.50;;;;;;;;;;4939371;29;20126;-50
2023/10/29 01:07:32;;;;;;;8.18;4.10;;;;;;;;;;4956160;29;20050;-48
2023/10/29 01:09:59;;;;;;;6.28;4.10;;;;;;;;;;4938638;29;20785;-47
2023/10/29 01:12:27;;;;;;;;;;;;;;;;;;4956643;29;20027;-47
2023/10/29 01:14:53;;;;;;;7.97;4.30;;;;;;;;;;4938867;29;20282;-48
2023/10/29 01:17:23;;;;;;;17.65;4.75;;;;;;;;;;4955876;29;20267;-48
2023/10/29 01:19:50;;;;;;;7.13;5.05;;;;;;;;;;4956363;28;20423;-47
2023/10/29 01:22:18;;;;;;;8.98;4.05;;;;;;;;;;4956043;29;20552;-51
2023/10/29 01:24:44;;;;;;;5.95;4.00;;;;;;;;;;4955717;29;20042;-47
2023/10/29 01:27:10;;;;;;;8.27;4.40;;;;;;;;;;4955711;29;20062;-47
2023/10/29 01:29:36;;;;;;;6.75;4.43;;;;;;;;;;4938607;29;20047;-46
2023/10/29 01:32:03;;;;;;;12.90;4.93;;;;;;;;;;4955455;29;20147;-46
2023/10/29 01:34:29;;;;;;;6.68;4.00;;;;;;;;;;4955943;29;20801;-47
2023/10/29 01:36:55;;;;;;;10.68;3.85;;;;;;;;;;4937875;29;20031;-50
2023/10/29 01:39:21;;;;;;;8.23;4.35;;;;;;;;;;4938129;29;20030;-49
2023/10/29 01:41:47;;;;;;;10.70;4.70;;;;;;;;;;4955713;29;20019;-50
2023/10/29 01:44:14;;;;;;;7.77;3.90;;;;;;;;;;4955569;29;20041;-47
2023/10/29 01:46:40;;;;;;;5.83;3.73;;;;;;;;;;4937996;29;20038;-50
2023/10/29 01:49:09;;;;;;;9.50;3.72;;;;;;;;;;4955651;28;20043;-47
2023/10/29 01:51:36;;;;;;;8.10;3.45;;;;;;;;;;4955546;29;20524;-47
2023/10/29 01:54:03;;;;;;;11.55;3.90;;;;;;;;;;4955104;29;20122;-51
2023/10/29 01:56:29;;;;;;;8.30;3.90;;;;;;;;;;4955176;29;20034;-46
2023/10/29 01:58:55;;;;;;;12.40;4.85;;;;;;;;;;4955032;28;20358;-48
2023/10/29 02:01:21;;;;;;;9.73;4.78;;;;;;;;;;4922370;29;20091;-52
2023/10/29 02:03:47;;;;;;;10.48;4.90;;;;;;;;;;4955364;29;20035;-50
2023/10/29 02:06:20;;;;;;;8.10;3.50;;;;;;;;;;4955190;29;20387;-54
2023/10/29 02:08:46;;;;;;;9.30;4.13;;;;;;;;;;4937690;29;20086;-49
2023/10/29 02:11:14;;;;;;;;;;;;;;;;;;4938051;29;20031;-51
2023/10/29 02:13:40;;;;;;;7.47;3.95;;;;;;;;;;4954820;29;19925;-50
2023/10/29 02:16:06;;;;;;;6.95;4.13;;;;;;;;;;4937425;29;20040;-50
2023/10/29 02:18:32;;;;;;;10.23;3.80;;;;;;;;;;4954787;28;20031;-48
2023/10/29 02:20:58;;;;;;;8.07;4.27;;;;;;;;;;4937658;29;20042;-47
2023/10/29 02:23:25;;;;;;;8.20;4.25;;;;;;;;;;4936512;29;20463;-50
2023/10/29 02:25:51;;;;;;;9.17;4.30;;;;;;;;;;4938001;29;20069;-47
2023/10/29 02:28:17;;;;;;;13.13;4.40;;;;;;;;;;4954991;28;20023;-47
2023/10/29 02:30:43;;;;;;;7.90;3.88;;;;;;;;;;4937776;29;20031;-49
2023/10/29 02:33:09;;;;;;;8.87;3.53;;;;;;;;;;4955110;29;20054;-50
2023/10/29 02:35:36;;;;;;;10.63;4.78;;;;;;;;;;4937757;29;20027;-47
2023/10/29 02:38:02;;;;;;;8.60;4.67;;;;;;;;;;4948211;29;20027;-48
2023/10/29 02:40:28;;;;;;;8.13;5.50;;;;;;;;;;4935690;29;20031;-47
2023/10/29 02:42:54;;;;;;;15.60;4.93;;;;;;;;;;4947768;29;20278;-50
2023/10/29 02:45:21;;;;;;;10.45;4.97;;;;;;;;;;4954282;29;20282;-47
2023/10/29 02:47:47;;;;;;;9.48;3.92;;;;;;;;;;4921205;28;20497;-47
2023/10/29 02:50:13;;;;;;;9.38;4.60;;;;;;;;;;4953139;29;20090;-47
2023/10/29 02:52:40;;;;;;;10.15;5.28;;;;;;;;;;4937052;29;20027;-48
2023/10/29 02:55:06;;;;;;;10.27;5.60;;;;;;;;;;4937110;29;20038;-50
2023/10/29 02:57:33;;;;;;;10.90;4.88;;;;;;;;;;4937139;29;20031;-49
2023/10/29 03:00:00;;;;;;;8.43;3.75;;;;;;;;;;4937258;29;20035;-48
2023/10/29 03:02:26;;;;;;;8.88;4.70;;;;;;;;;;4936484;29;20023;-49
2023/10/29 03:04:53;;;;;;;9.90;4.03;;;;;;;;;;4937217;29;20038;-49
2023/10/29 03:07:19;;;;;;;11.93;4.35;;;;;;;;;;4936431;29;20074;-49
2023/10/29 03:09:45;;;;;;;10.30;4.47;;;;;;;;;;4953416;28;20027;-47
2023/10/29 03:12:12;;;;;;;9.23;4.78;;;;;;;;;;4954120;29;20144;-48
2023/10/29 03:14:38;;;;;;;11.30;5.43;;;;;;;;;;4936574;29;20068;-49
2023/10/29 03:17:04;;;;;;;7.20;4.70;;;;;;;;;;4953435;29;20138;-46
2023/10/29 03:19:30;;;;;;;9.15;4.57;;;;;;;;;;4936832;29;20035;-47
2023/10/29 03:21:56;;;;;;;9.20;4.65;;;;;;;;;;4935489;29;20031;-47
2023/10/29 03:24:23;;;;;;;11.15;5.97;;;;;;;;;;4936594;29;20051;-47
2023/10/29 03:26:50;;;;;;;9.02;4.70;;;;;;;;;;4953342;29;20066;-47
2023/10/29 03:29:16;;;;;;;22.83;5.72;;;;;;;;;;4953811;28;20032;-49
2023/10/29 03:31:42;;;;;;;9.82;5.25;;;;;;;;;;4953540;29;20039;-48
2023/10/29 03:34:08;;;;;;;10.13;4.57;;;;;;;;;;4953885;29;20038;-49
2023/10/29 03:36:35;;;;;;;11.93;5.70;;;;;;;;;;4953100;29;20027;-48
2023/10/29 03:39:01;;;;;;;10.05;5.25;;;;;;;;;;4953763;28;20034;-47
2023/10/29 03:41:29;;;;;;;10.73;5.47;;;;;;;;;;4952987;29;20417;-49
2023/10/29 03:43:55;;;;;;;12.90;6.15;;;;;;;;;;4952558;29;20035;-48
2023/10/29 03:46:21;;;;;;;8.07;5.43;;;;;;;;;;4953191;29;20137;-46
2023/10/29 03:48:47;;;;;;;9.02;4.53;;;;;;;;;;4953583;28;20045;-48
2023/10/29 03:51:14;;;;;;;11.90;4.65;;;;;;;;;;4933569;29;20094;-51
2023/10/29 03:53:40;;;;;;;10.23;4.43;;;;;;;;;;4936335;29;20117;-49
2023/10/29 03:56:07;;;;;;;9.45;4.68;;;;;;;;;;4952978;29;20173;-48
2023/10/29 03:58:33;;;;;;;8.30;5.13;;;;;;;;;;4953407;28;20035;-47
2023/10/29 04:01:01;;;;;;;7.40;4.73;;;;;;;;;;4932830;29;20035;-48
2023/10/29 04:03:28;;;;;;;6.75;4.65;;;;;;;;;;4953410;29;20066;-48
2023/10/29 04:05:54;;;;;;;8.10;4.72;;;;;;;;;;4935962;29;20039;-52
2023/10/29 04:08:20;;;;;;;9.10;4.45;;;;;;;;;;4936451;29;20494;-47
2023/10/29 04:10:47;;;;;;;8.02;4.43;;;;;;;;;;4953332;29;20402;-47
2023/10/29 04:13:13;;;;;;;7.97;4.30;;;;;;;;;;4935640;29;20059;-50
2023/10/29 04:15:39;;;;;;;9.15;4.63;;;;;;;;;;4920192;29;20027;-49
2023/10/29 04:18:05;;;;;;;9.23;4.45;;;;;;;;;;4952328;28;20064;-47
2023/10/29 04:20:32;;;;;;;9.48;4.97;;;;;;;;;;4953157;29;20504;-48
2023/10/29 04:22:58;;;;;;;10.57;5.63;;;;;;;;;;4937930;29;20106;-46
2023/10/29 04:25:24;;;;;;;11.10;4.88;;;;;;;;;;4936939;29;20088;-51
2023/10/29 04:27:50;;;;;;;11.68;5.25;;;;;;;;;;4936035;28;20035;-49
2023/10/29 04:30:17;;;;;;;7.72;5.28;;;;;;;;;;4953217;29;20027;-47
2023/10/29 04:32:43;;;;;;;13.43;4.72;;;;;;;;;;4953277;29;20063;-50
2023/10/29 04:35:09;;;;;;;13.02;5.18;;;;;;;;;;4953298;29;20034;-47
2023/10/29 04:37:35;;;;;;;8.85;4.82;;;;;;;;;;4916876;29;20036;-48
2023/10/29 04:40:03;;;;;;;10.43;4.32;;;;;;;;;;4934026;29;20083;-46
2023/10/29 04:42:29;;;;;;;;;;;;;;;;;;4934550;29;20062;-48
2023/10/29 04:44:55;;;;;;;12.00;5.38;;;;;;;;;;4933889;29;19958;-48
2023/10/29 04:47:21;;;;;;;12.23;5.18;;;;;;;;;;4933848;29;20063;-50
2023/10/29 04:49:47;;;;;;;8.32;4.40;;;;;;;;;;4980797;23;20046;-47
2023/10/29 04:52:14;;;;;;;11.65;4.72;;;;;;;;;;4991557;28;20523;-48
2023/10/29 04:54:42;;;;;;;10.18;3.60;;;;;;;;;;4991515;28;20069;-50
2023/10/29 04:57:08;;;;;;;10.05;4.38;;;;;;;;;;4991519;28;20029;-49
2023/10/29 04:59:36;;;;;;;15.13;5.20;;;;;;;;;;4991450;28;20030;-47
2023/10/29 05:02:06;;;;;;;9.98;4.47;;;;;;;;;;4991270;28;20037;-49
2023/10/29 05:04:32;;;;;;;5.97;3.83;;;;;;;;;;4989574;28;20053;-51
2023/10/29 05:06:58;;;;;;;8.30;4.63;;;;;;;;;;4983314;28;20042;-48
2023/10/29 05:09:24;;;;;;;15.50;4.95;;;;;;;;;;4991371;28;20048;-49
2023/10/29 05:11:50;;;;;;;6.10;4.53;;;;;;;;;;4991881;28;20022;-48
2023/10/29 05:14:16;;;;;;;8.50;4.88;;;;;;;;;;4994803;28;20030;-47
2023/10/29 05:16:43;;;;;;;8.02;3.88;;;;;;;;;;4994740;28;20022;-47
2023/10/29 05:19:09;;;;;;;7.13;4.50;;;;;;;;;;4993234;28;20022;-47
2023/10/29 05:21:35;;;;;;;10.07;4.03;;;;;;;;;;4993237;28;20037;-49
2023/10/29 05:24:02;;;;;;;14.00;4.25;;;;;;;;;;4994686;28;20058;-45
2023/10/29 05:26:28;;;;;;;;;;;;;;;;;;4977343;28;20110;-46
2023/10/29 05:28:54;;;;;;;13.90;5.13;;;;;;;;;;4994433;28;19945;-47
2023/10/29 05:31:20;;;;;;;11.85;4.63;;;;;;;;;;4994336;28;20061;-48
2023/10/29 05:33:47;;;;;;;6.05;4.28;;;;;;;;;;4994295;28;20030;-48
2023/10/29 05:36:13;;;;;;;8.73;4.15;;;;;;;;;;4994453;28;20382;-49
2023/10/29 05:38:39;;;;;;;8.77;4.68;;;;;;;;;;4994535;28;20022;-50
2023/10/29 05:41:06;;;;;;;11.10;4.97;;;;;;;;;;4994463;28;20076;-51
2023/10/29 05:43:34;;;;;;;8.43;4.78;;;;;;;;;;4994536;28;20416;-47
2023/10/29 05:46:00;;;;;;;12.65;5.70;;;;;;;;;;4992923;28;20031;-50
2023/10/29 05:48:27;;;;;;;9.80;4.93;;;;;;;;;;4994135;28;20091;-48
2023/10/29 05:50:53;;;;;;;8.23;5.80;;;;;;;;;;4994460;28;20038;-47
2023/10/29 05:53:19;;;;;;;10.93;4.97;;;;;;;;;;4994245;28;20031;-49
2023/10/29 05:55:45;;;;;;;11.77;5.60;;;;;;;;;;4994428;28;20026;-49
2023/10/29 05:58:11;;;;;;;10.40;5.53;;;;;;;;;;4994016;28;20035;-53
2023/10/29 06:00:37;;;;;;;12.57;5.40;;;;;;;;;;4994301;28;20034;-48
2023/10/29 06:03:04;;;;;;;7.60;5.30;;;;;;;;;;4993009;28;20121;-50
2023/10/29 06:05:30;;;;;;;10.27;5.18;;;;;;;;;;4994336;28;20560;-52
2023/10/29 06:07:56;;;;;;;8.30;4.75;;;;;;;;;;4994100;28;20034;-48
2023/10/29 06:10:22;;;;;;;6.10;4.40;;;;;;;;;;4993994;28;20099;-49
2023/10/29 06:12:49;;;;;;;9.20;6.00;;;;;;;;;;4993736;28;20437;-47
2023/10/29 06:15:15;;;;;;;10.93;6.22;;;;;;;;;;4980463;28;20346;-49
2023/10/29 06:17:42;;;;;;;10.38;5.60;;;;;;;;;;4974924;28;20026;-47
2023/10/29 06:20:10;;;;;;;9.73;5.03;;;;;;;;;;4940657;28;20493;-47
2023/10/29 06:22:36;;;;;;;9.82;4.90;;;;;;;;;;4996097;28;20026;-46
2023/10/29 06:25:03;;;;;;;9.75;4.60;;;;;;;;;;4992090;28;20034;-48
2023/10/29 06:27:29;;;;;;;10.27;5.13;;;;;;;;;;4993620;28;20041;-49
2023/10/29 06:29:55;;;;;;;15.85;6.47;;;;;;;;;;4993702;28;20030;-46
2023/10/29 06:32:21;;;;;;;9.57;4.57;;;;;;;;;;4992730;28;20038;-46
2023/10/29 06:34:47;;;;;;;10.25;4.88;;;;;;;;;;4992341;28;20428;-47
2023/10/29 06:37:13;;;;;;;10.43;5.33;;;;;;;;;;4991787;28;20488;-47
2023/10/29 06:39:40;;;;;;;17.50;5.28;;;;;;;;;;4993467;28;20022;-47
2023/10/29 06:42:06;;;;;;;9.40;5.40;;;;;;;;;;4990424;28;20451;-49
2023/10/29 06:44:32;;;;;;;10.90;5.40;;;;;;;;;;4983836;28;20034;-47
2023/10/29 06:46:59;;;;;;;14.43;6.27;;;;;;;;;;4991233;28;20477;-46
2023/10/29 06:49:25;;;;;;;11.98;5.70;;;;;;;;;;4993173;28;20030;-46
2023/10/29 06:51:53;;;;;;;6.10;4.75;;;;;;;;;;4992986;28;20037;-46
2023/10/29 06:54:19;;;;;;;7.35;5.20;;;;;;;;;;4993179;28;20026;-48
2023/10/29 06:56:45;;;;;;;16.48;6.53;;;;;;;;;;4992018;28;20033;-49
2023/10/29 06:59:12;;;;;;;6.68;4.75;;;;;;;;;;4993311;28;20026;-46
2023/10/29 07:01:38;;;;;;;18.20;5.47;;;;;;;;;;4993359;28;20085;-48
2023/10/29 07:04:04;;;;;;;8.20;4.55;;;;;;;;;;4992043;28;20034;-47
2023/10/29 07:06:31;;;;;;;13.90;5.47;;;;;;;;;;4992865;28;20480;-51
2023/10/29 07:08:57;;;;;;;7.95;4.82;;;;;;;;;;4972309;28;20073;-50
2023/10/29 07:11:23;;;;;;;14.70;5.87;;;;;;;;;;4992885;28;20040;-47
2023/10/29 07:13:52;;;;;;;10.75;4.93;;;;;;;;;;4993014;28;20065;-47
2023/10/29 07:16:18;;;;;;;9.77;4.85;;;;;;;;;;4988130;28;20049;-47
2023/10/29 07:18:44;;;;;;;12.50;4.63;;;;;;;;;;4992985;28;20062;-46
2023/10/29 07:21:10;;;;;;;13.00;5.20;;;;;;;;;;4991684;28;20034;-47
2023/10/29 07:23:37;;;;;;;9.07;4.47;;;;;;;;;;4975833;28;20038;-47
2023/10/29 07:26:03;;;;;;;15.47;5.20;;;;;;;;;;5001429;28;20034;-47
2023/10/29 07:28:29;;;;;;;8.07;4.87;;;;;;;;;;5011301;28;20345;-46
2023/10/29 07:30:55;;;;;;;7.97;3.70;;;;;;;;;;5011198;28;20038;-48
2023/10/29 07:33:22;;;;;;;9.63;4.57;;;;;;;;;;5012295;28;20072;-47
2023/10/29 07:35:48;;;;;;;8.48;4.82;;;;;;;;;;4995392;28;20099;-48
2023/10/29 07:38:14;;;;;;;9.63;4.97;;;;;;;;;;4995585;28;20093;-51
2023/10/29 07:40:40;;;;;;;11.35;4.47;;;;;;;;;;5012261;28;20444;-47
2023/10/29 07:43:07;;;;;;;9.63;5.60;;;;;;;;;;5012253;28;20408;-50
2023/10/29 07:45:33;;;;;;;8.88;4.78;;;;;;;;;;5007650;28;20511;-46
2023/10/29 07:47:59;;;;;;;12.33;5.23;;;;;;;;;;4991645;28;20038;-49
2023/10/29 07:50:26;;;;;;;7.67;4.50;;;;;;;;;;4988565;28;20030;-48
2023/10/29 07:52:52;;;;;;;9.80;4.72;;;;;;;;;;4991760;28;20025;-47
2023/10/29 07:55:19;;;;;;;9.25;4.32;;;;;;;;;;4985873;28;20049;-45
2023/10/29 07:57:45;;;;;;;5.65;4.07;;;;;;;;;;4989086;28;20034;-47
2023/10/29 08:00:14;;;;;;;10.10;5.00;;;;;;;;;;4990422;28;20034;-47
2023/10/29 08:02:41;;;;;;;10.82;3.95;;;;;;;;;;4970934;28;20119;-47
2023/10/29 08:05:08;;;;;;;12.30;4.30;;;;;;;;;;4971025;28;20030;-49
2023/10/29 08:07:34;;;;;;;10.32;4.63;;;;;;;;;;4970800;28;20046;-47
2023/10/29 08:10:00;;;;;;;8.25;4.60;;;;;;;;;;4972399;28;20478;-46
2023/10/29 08:12:28;;;;;;;13.10;7.97;;;;;;;;;;4988198;28;20433;-48
2023/10/29 08:14:54;;;;;;;8.05;5.18;;;;;;;;;;4991979;28;20038;-46
2023/10/29 08:17:21;;;;;;;9.90;4.40;;;;;;;;;;4991858;28;20087;-51
2023/10/29 08:19:47;;;;;;;11.85;4.22;;;;;;;;;;4987046;28;20026;-48
2023/10/29 08:22:17;;;;;;;10.80;4.13;;;;;;;;;;4991632;28;20041;-48
2023/10/29 08:24:43;;;;;;;6.43;4.13;;;;;;;;;;5011844;28;20030;-50
2023/10/29 08:27:10;;;;;;;11.05;4.85;;;;;;;;;;4996263;28;20034;-50
2023/10/29 08:29:38;;;;;;;11.57;4.23;;;;;;;;;;4992015;28;20026;-49
2023/10/29 08:32:04;;;;;;;8.80;3.83;;;;;;;;;;4990787;28;20134;-46
2023/10/29 08:34:30;;;;;;;8.98;4.93;;;;;;;;;;4992157;28;20730;-48
2023/10/29 08:36:57;;;;;;;9.52;4.50;;;;;;;;;;4992019;28;20023;-49
2023/10/29 08:39:23;;;;;;;6.35;3.80;;;;;;;;;;4992054;28;20499;-49
2023/10/29 08:41:50;;;;;;;7.22;3.92;;;;;;;;;;4991718;28;20513;-52
2023/10/29 08:44:19;;;;;;;6.85;3.65;;;;;;;;;;4988563;28;20030;-48
2023/10/29 08:46:46;;;;;;;4.90;2.63;;;;;;;;;;5008958;28;20033;-51
2023/10/29 08:49:12;;;;;;;;;;;;;;;;;;5012084;28;20033;-47
2023/10/29 08:51:39;;;;;;;77.50;62.83;;;;;;;;;;4999132;28;19921;-48
2023/10/29 08:54:05;;;;;;;7.00;4.82;;;;;;;;;;4997476;28;20022;-45
2023/10/29 08:56:37;;;;;;;7.33;3.70;;;;;;;;;;5015180;28;20530;-44
2023/10/29 08:59:04;;;;;;;5.35;3.17;;;;;;;;;;5015139;28;20276;-46
2023/10/29 09:01:31;;;;;;;5.88;3.28;;;;;;;;;;5004816;28;20437;-51
2023/10/29 09:03:57;;;;;;;6.03;2.88;;;;;;;;;;4995445;28;20038;-48
2023/10/29 09:06:24;;;;;;;9.02;3.22;;;;;;;;;;4995360;28;20035;-48
2023/10/29 09:08:51;;;;;;;8.57;4.15;;;;;;;;;;4987244;28;20039;-47
2023/10/29 09:11:17;;;;;;;6.00;3.33;;;;;;;;;;4993450;28;20113;-52
2023/10/29 09:13:43;;;;;;;10.30;3.63;;;;;;;;;;4994666;28;20081;-47
2023/10/29 09:16:10;;;;;;;6.33;3.57;;;;;;;;;;4995214;28;20030;-48
2023/10/29 09:18:36;;;;;;;6.65;3.55;;;;;;;;;;4995074;28;20031;-48
2023/10/29 09:21:03;;;;;;;10.82;4.50;;;;;;;;;;4995215;28;20037;-49
2023/10/29 09:23:29;;;;;;;6.38;4.07;;;;;;;;;;4995238;28;20046;-50
2023/10/29 09:25:55;;;;;;;9.23;4.15;;;;;;;;;;4994954;28;20033;-46
2023/10/29 09:28:22;;;;;;;8.95;3.85;;;;;;;;;;4994971;28;20041;-49
2023/10/29 09:30:48;;;;;;;8.18;3.88;;;;;;;;;;4995032;28;20393;-49
2023/10/29 09:33:15;;;;;;;8.50;4.93;;;;;;;;;;4993719;28;20026;-45
2023/10/29 09:35:41;;;;;;;;;;;;;;;;;;4995465;28;20412;-53
2023/10/29 09:38:07;;;;;;;16.50;5.25;;;;;;;;;;4994647;28;20407;-48
2023/10/29 09:40:34;;;;;;;10.50;5.23;;;;;;;;;;4993537;28;20038;-48
2023/10/29 09:43:03;;;;;;;11.13;4.88;;;;;;;;;;4993583;28;20066;-49
2023/10/29 09:45:30;;;;;;;11.73;5.00;;;;;;;;;;4993558;28;20110;-47
2023/10/29 09:47:59;;;;;;;13.38;5.32;;;;;;;;;;4994540;28;20026;-49
2023/10/29 09:50:26;;;;;;;9.73;4.45;;;;;;;;;;4994366;28;20053;-49
2023/10/29 09:52:52;;;;;;;11.10;5.07;;;;;;;;;;4993282;28;20034;-50
2023/10/29 09:55:22;;;;;;;8.18;4.90;;;;;;;;;;4994542;28;20106;-51
2023/10/29 09:57:49;;;;;;;8.35;5.00;;;;;;;;;;4993609;28;20022;-47
2023/10/29 10:00:16;;;;;;;10.25;4.95;;;;;;;;;;4994457;28;20508;-48
2023/10/29 10:02:52;;;;;;;11.07;5.10;;;;;;;;;;4993229;28;20571;-50
2023/10/29 10:05:21;;;;;;;11.35;4.85;;;;;;;;;;4994459;28;20022;-50
2023/10/29 10:07:48;;;;;;;7.78;6.00;;;;;;;;;;4994087;28;20141;-50
2023/10/29 10:10:15;;;;;;;9.57;4.55;;;;;;;;;;4994141;28;20439;-50
2023/10/29 10:12:45;;;;;;;12.18;6.88;;;;;;;;;;4994187;28;20033;-55
2023/10/29 10:15:11;;;;;;;10.07;7.03;;;;;;;;;;4994145;28;20033;-52
2023/10/29 10:17:37;;;;;;;7.47;4.78;;;;;;;;;;4993991;28;20026;-48
2023/10/29 10:20:07;;;;;;;11.02;4.03;;;;;;;;;;4993962;28;20033;-49
2023/10/29 10:22:35;;;;;;;6.40;3.22;;;;;;;;;;4992667;28;20034;-49
2023/10/29 10:25:01;;;;;;;7.80;3.63;;;;;;;;;;4993868;28;20058;-49
2023/10/29 10:27:27;;;;;;;9.88;4.53;;;;;;;;;;4993748;28;20041;-49
2023/10/29 10:29:53;;;;;;;4.90;3.40;;;;;;;;;;4992597;28;20564;-48
2023/10/29 10:32:25;;;;;;;5.32;2.78;;;;;;;;;;4993935;28;20332;-52
2023/10/29 10:34:52;;;;;;;12.27;3.30;;;;;;;;;;4992545;28;20033;-51
2023/10/29 10:37:18;;;;;;;8.15;3.47;;;;;;;;;;4992376;28;20061;-49
2023/10/29 10:39:44;;;;;;;8.77;2.87;;;;;;;;;;4993541;28;20073;-51
2023/10/29 10:42:10;;;;;;;10.52;5.22;;;;;;;;;;4992345;28;20303;-50
2023/10/29 10:44:37;;;;;;;4.68;2.58;;;;;;;;;;4993590;28;20048;-49
2023/10/29 10:47:03;;;;;;;14.10;3.53;;;;;;;;;;4993367;28;20026;-50
2023/10/29 10:49:34;;;;;;;4.95;2.45;;;;;;;;;;4993749;28;20053;-49
2023/10/29 10:52:02;;;;;;;7.10;3.15;;;;;;;;;;4993339;28;20102;-52
2023/10/29 10:54:29;;;;;;;9.20;2.97;;;;;;;;;;4993681;28;20433;-52
2023/10/29 10:56:56;;;;;;;3.70;2.30;;;;;;;;;;4993312;28;20034;-51
2023/10/29 10:59:23;;;;;;;6.90;2.75;;;;;;;;;;4993062;28;20023;-52
2023/10/29 11:01:49;;;;;;;8.45;3.10;;;;;;;;;;4993323;28;20106;-47
2023/10/29 11:04:15;;;;;;;7.90;3.33;;;;;;;;;;4993316;28;20527;-48
2023/10/29 11:06:43;;;;;;;4.57;3.00;;;;;;;;;;4992987;28;20413;-53
2023/10/29 11:09:12;;;;;;;4.38;2.30;;;;;;;;;;4992718;28;20045;-51
2023/10/29 11:11:43;;;;;;;5.72;2.70;;;;;;;;;;4992761;28;20046;-49
2023/10/29 11:14:09;;;;;;;10.25;2.90;;;;;;;;;;4993065;28;20057;-52
2023/10/29 11:16:44;;;;;;;6.67;2.67;;;;;;;;;;4991539;28;20046;-51
2023/10/29 11:19:29;;;;;;;3.25;2.40;;;;;;;;;;4991716;28;20050;-48
2023/10/29 11:22:14;;;;;;;8.35;3.10;;;;;;;;;;4985452;28;20026;-48
2023/10/29 11:24:41;;;;;;;5.30;3.05;;;;;;;;;;4992885;28;20030;-47
2023/10/29 11:27:26;;;;;;;8.07;2.67;;;;;;;;;;4992698;28;20105;-48
2023/10/29 11:29:52;;;;;;;4.85;2.63;;;;;;;;;;4992678;28;20042;-48
2023/10/29 11:32:25;;;;;;;12.32;3.25;;;;;;;;;;4993013;28;20460;-47
2023/10/29 11:35:11;;;;;;;7.63;2.88;;;;;;;;;;4991409;28;20030;-49
2023/10/29 11:37:37;;;;;;;4.50;2.70;;;;;;;;;;4992443;28;20077;-49
2023/10/29 11:40:22;;;;;;;3.70;2.63;;;;;;;;;;4992525;28;20028;-53
2023/10/29 11:42:48;;;;;;;9.52;3.20;;;;;;;;;;4992643;28;20435;-52
2023/10/29 11:45:23;;;;;;;4.72;2.92;;;;;;;;;;4991380;28;20045;-53
2023/10/29 11:48:11;;;;;;;5.05;2.05;;;;;;;;;;4992405;28;20539;-49
2023/10/29 11:50:38;;;;;;;6.57;2.40;;;;;;;;;;4992439;28;20485;-51
2023/10/29 11:53:05;;;;;;;5.97;2.38;;;;;;;;;;4992523;28;20092;-49
2023/10/29 11:55:42;;;;;;;4.63;2.13;;;;;;;;;;4992792;28;20030;-51
2023/10/29 11:58:08;;;;;;;4.95;2.50;;;;;;;;;;4992255;28;20588;-50
2023/10/29 12:00:38;;;;;;;6.10;2.00;;;;;;;;;;4991851;28;20034;-52
2023/10/29 12:03:04;;;;;;;4.53;2.28;;;;;;;;;;4992696;28;20033;-51
2023/10/29 12:05:31;;;;;;;4.38;2.47;;;;;;;;;;4993780;28;20089;-49
2023/10/29 12:08:00;;;;;;;7.43;2.58;;;;;;;;;;4990164;28;20032;-50
2023/10/29 12:10:27;;;;;;;6.35;2.90;;;;;;;;;;4990260;28;20401;-53
2023/10/29 12:12:53;;;;;;;6.13;1.90;;;;;;;;;;4990670;28;20042;-49
2023/10/29 12:15:20;;;;;;;5.97;3.67;;;;;;;;;;4990330;28;20019;-50
2023/10/29 12:17:46;;;;;;;6.15;3.28;;;;;;;;;;4988415;28;20038;-49
2023/10/29 12:20:28;;;;;;;9.75;4.63;;;;;;;;;;4989969;28;20451;-51
2023/10/29 12:22:56;;;;;;;18.02;9.02;;;;;;;;;;4989208;28;20573;-48
2023/10/29 12:25:23;;;;;;;18.70;10.25;;;;;;;;;;4993387;28;20040;-50
2023/10/29 12:27:50;;;;;;;10.90;4.45;;;;;;;;;;4993699;28;20038;-54
2023/10/29 12:30:17;;;;;;;;;;;;;;;;;;4994326;28;20081;-51
2023/10/29 12:32:43;;;;;;;11.48;4.05;;;;;;;;;;4994308;28;19948;-52
2023/10/29 12:35:10;;;;;;;21.60;15.93;;;;;;;;;;4993420;28;20033;-52
2023/10/29 12:37:36;;;;;;;9.95;5.47;;;;;;;;;;4994204;28;20037;-53
2023/10/29 12:40:02;;;;;;;5.60;3.30;;;;;;;;;;4993523;28;20034;-50
2023/10/29 12:42:47;;;;;;;7.93;3.40;;;;;;;;;;4994120;28;20027;-49
2023/10/29 12:45:22;;;;;;;11.20;6.60;;;;;;;;;;4975211;28;20034;-52
2023/10/29 12:47:50;;;;;;;4.75;2.88;;;;;;;;;;4991080;28;20026;-50
2023/10/29 12:50:16;;;;;;;8.18;4.70;;;;;;;;;;4993522;28;20026;-49
2023/10/29 12:52:43;;;;;;;13.83;9.83;;;;;;;;;;4992573;28;20396;-49
2023/10/29 12:55:10;;;;;;;7.70;3.65;;;;;;;;;;4988468;28;20015;-49
2023/10/29 12:57:36;;;;;;;6.63;3.13;;;;;;;;;;4987349;28;20029;-48
2023/10/29 13:00:04;;;;;;;13.13;10.70;;;;;;;;;;4992498;28;20284;-50
2023/10/29 13:02:30;;;;;;;11.43;3.38;;;;;;;;;;4993722;28;20466;-49
2023/10/29 13:04:56;;;;;;;7.15;4.22;;;;;;;;;;4993990;28;20085;-49
2023/10/29 13:07:22;;;;;;;5.20;2.70;;;;;;;;;;4993546;28;20026;-49
2023/10/29 13:09:51;;;;;;;5.80;3.17;;;;;;;;;;4993501;28;20508;-51
2023/10/29 13:12:17;;;;;;;3.90;3.20;;;;;;;;;;4993482;28;20349;-49
2023/10/29 13:14:45;;;;;;;13.48;7.60;;;;;;;;;;4992589;28;20033;-49
2023/10/29 13:17:14;;;;;;;6.50;4.80;;;;;;;;;;4993081;28;20030;-49
2023/10/29 13:19:40;;;;;;;7.05;4.60;;;;;;;;;;4991508;28;20030;-49
2023/10/29 13:22:06;;;;;;;22.63;14.35;;;;;;;;;;4993582;28;20027;-50
2023/10/29 13:24:33;;;;;;;39.22;24.15;;;;;;;;;;4992724;28;20113;-51
2023/10/29 13:27:01;;;;;;;22.98;11.95;;;;;;;;;;4991967;28;20030;-48
2023/10/29 13:29:28;;;;;;;16.02;8.88;;;;;;;;;;4993392;28;20607;-51
2023/10/29 13:31:54;;;;;;;11.55;8.15;;;;;;;;;;4992650;28;20447;-51
2023/10/29 13:34:21;;;;;;;8.47;5.90;;;;;;;;;;4990948;28;20044;-49
2023/10/29 13:36:47;;;;;;;6.83;4.40;;;;;;;;;;4993064;28;20110;-48
2023/10/29 13:39:13;;;;;;;9.05;4.10;;;;;;;;;;4991965;28;20361;-48
2023/10/29 13:41:40;;;;;;;7.80;4.53;;;;;;;;;;4993230;28;20026;-49
2023/10/29 13:44:06;;;;;;;31.02;16.50;;;;;;;;;;4992936;28;20034;-50
2023/10/29 13:46:33;;;;;;;6.28;5.10;;;;;;;;;;4992890;28;20053;-51
2023/10/29 13:49:00;;;;;;;8.77;4.85;;;;;;;;;;4992971;28;20122;-50
2023/10/29 13:51:26;;;;;;;;;;;;;;;;;;4993626;28;20074;-49
2023/10/29 13:53:53;;;;;;;7.50;4.60;;;;;;;;;;4992595;28;19909;-50
2023/10/29 13:56:22;;;;;;;6.35;4.40;;;;;;;;;;4992920;28;20026;-51
2023/10/29 13:58:49;;;;;;;7.55;4.65;;;;;;;;;;4992618;28;20038;-51
2023/10/29 14:01:19;;;;;;;10.27;5.53;;;;;;;;;;4992114;28;20042;-49
2023/10/29 14:03:46;;;;;;;7.57;4.85;;;;;;;;;;4991182;28;20038;-50
2023/10/29 14:06:13;;;;;;;10.32;5.53;;;;;;;;;;4992683;28;20057;-52
2023/10/29 14:08:39;;;;;;;9.38;5.13;;;;;;;;;;4992751;28;20039;-52
2023/10/29 14:11:06;;;;;;;8.63;5.87;;;;;;;;;;4992324;28;20030;-49
2023/10/29 14:13:32;;;;;;;7.75;5.20;;;;;;;;;;4992164;28;20104;-48
2023/10/29 14:15:58;;;;;;;9.10;5.28;;;;;;;;;;4992229;28;20031;-49
2023/10/29 14:18:25;;;;;;;6.63;4.55;;;;;;;;;;4990497;28;20029;-48
2023/10/29 14:20:51;;;;;;;7.90;5.40;;;;;;;;;;4992464;28;20026;-52
2023/10/29 14:23:18;;;;;;;7.00;5.07;;;;;;;;;;4991796;28;20036;-48
2023/10/29 14:25:47;;;;;;;7.05;5.13;;;;;;;;;;4992131;28;20507;-50
2023/10/29 14:28:13;;;;;;;15.70;10.75;;;;;;;;;;4992141;28;20034;-49
2023/10/29 14:30:40;;;;;;;5.93;5.32;;;;;;;;;;4991631;28;20085;-47
2023/10/29 14:33:06;;;;;;;13.40;9.77;;;;;;;;;;4991976;28;20029;-47
2023/10/29 14:35:32;;;;;;;9.70;8.13;;;;;;;;;;4992312;28;20049;-47
2023/10/29 14:37:58;;;;;;;7.93;6.67;;;;;;;;;;4992099;28;20034;-46
2023/10/29 14:40:25;;;;;;;6.30;4.78;;;;;;;;;;4991718;28;20277;-47